sensor_id;sensor_type;location;lat;lon;timestamp;pressure;altitude;pressure_sealevel;temperature;humidity
47260;BME280;32999;52.412;4.890;2022-11-03T00:01:48;101232.16;;;12.39;100.00
47260;BME280;32999;52.412;4.890;2022-11-03T00:06:53;101222.47;;;12.38;100.00
47260;BME280;32999;52.412;4.890;2022-11-03T00:11:56;101230.09;;;12.19;100.00
47260;BME280;32999;52.412;4.890;2022-11-03T00:16:58;101110.44;;;11.76;100.00
47260;BME280;32999;52.412;4.890;2022-11-03T00:22:00;101159.41;;;12.20;100.00
47260;BME280;32999;52.412;4.890;2022-11-03T00:27:03;101208.38;;;12.29;100.00
47260;BME280;32999;52.412;4.890;2022-11-03T00:32:05;101181.53;;;11.93;100.00
47260;BME280;32999;52.412;4.890;2022-11-03T00:37:07;101069.41;;;11.54;100.00
47260;BME280;32999;52.412;4.890;2022-11-03T00:42:10;101096.16;;;11.54;100.00
47260;BME280;32999;52.412;4.890;2022-11-03T00:47:12;101196.47;;;12.17;100.00
47260;BME280;32999;52.412;4.890;2022-11-03T00:52:14;101203.72;;;12.38;100.00
47260;BME280;32999;52.412;4.890;2022-11-03T00:57:17;101179.28;;;12.47;100.00
47260;BME280;32999;52.412;4.890;2022-11-03T01:02:19;101141.16;;;12.09;100.00
47260;BME280;32999;52.412;4.890;2022-11-03T01:07:21;101188.91;;;12.42;100.00
47260;BME280;32999;52.412;4.890;2022-11-03T01:12:24;101191.09;;;12.53;100.00
47260;BME280;32999;52.412;4.890;2022-11-03T01:17:28;101161.53;;;12.46;100.00
47260;BME280;32999;52.412;4.890;2022-11-03T01:22:30;101156.28;;;12.38;100.00
47260;BME280;32999;52.412;4.890;2022-11-03T01:27:33;101136.19;;;12.27;100.00
47260;BME280;32999;52.412;4.890;2022-11-03T01:32:35;101119.09;;;12.07;100.00
47260;BME280;32999;52.412;4.890;2022-11-03T01:37:37;101121.44;;;12.17;100.00
47260;BME280;32999;52.412;4.890;2022-11-03T01:42:45;101127.63;;;12.17;100.00
47260;BME280;32999;52.412;4.890;2022-11-03T01:47:48;101096.41;;;11.74;100.00
47260;BME280;32999;52.412;4.890;2022-11-03T01:52:53;101137.19;;;12.05;100.00
47260;BME280;32999;52.412;4.890;2022-11-03T01:58:01;101108.91;;;11.81;100.00
47260;BME280;32999;52.412;4.890;2022-11-03T02:03:08;101104.97;;;11.99;100.00
47260;BME280;32999;52.412;4.890;2022-11-03T02:08:14;101034.81;;;11.74;100.00
47260;BME280;32999;52.412;4.890;2022-11-03T02:13:20;101068.53;;;11.83;100.00
47260;BME280;32999;52.412;4.890;2022-11-03T02:18:25;101089.34;;;12.02;100.00
47260;BME280;32999;52.412;4.890;2022-11-03T02:23:31;101095.38;;;11.89;100.00
47260;BME280;32999;52.412;4.890;2022-11-03T02:28:42;101089.41;;;11.87;100.00
47260;BME280;32999;52.412;4.890;2022-11-03T02:33:48;101061.44;;;12.11;100.00
47260;BME280;32999;52.412;4.890;2022-11-03T02:39:01;101040.88;;;11.97;100.00
47260;BME280;32999;52.412;4.890;2022-11-03T02:44:07;101042.91;;;12.16;100.00
47260;BME280;32999;52.412;4.890;2022-11-03T02:49:12;101022.09;;;12.18;100.00
47260;BME280;32999;52.412;4.890;2022-11-03T02:54:17;101026.44;;;12.19;100.00
47260;BME280;32999;52.412;4.890;2022-11-03T02:59:25;100956.81;;;11.77;100.00
47260;BME280;32999;52.412;4.890;2022-11-03T03:04:32;100986.28;;;11.98;100.00
47260;BME280;32999;52.412;4.890;2022-11-03T03:09:40;101007.25;;;12.16;100.00
47260;BME280;32999;52.412;4.890;2022-11-03T03:14:46;100889.97;;;11.47;100.00
47260;BME280;32999;52.412;4.890;2022-11-03T03:19:54;100966.28;;;12.22;100.00
47260;BME280;32999;52.412;4.890;2022-11-03T03:25:02;100968.25;;;12.35;100.00
47260;BME280;32999;52.412;4.890;2022-11-03T03:30:13;100974.03;;;12.10;100.00
47260;BME280;32999;52.412;4.890;2022-11-03T03:35:27;100968.25;;;12.13;100.00
47260;BME280;32999;52.412;4.890;2022-11-03T03:40:37;100961.88;;;12.14;100.00
47260;BME280;32999;52.412;4.890;2022-11-03T03:45:42;100956.97;;;12.18;100.00
47260;BME280;32999;52.412;4.890;2022-11-03T03:50:47;100948.56;;;12.21;100.00
47260;BME280;32999;52.412;4.890;2022-11-03T03:55:53;100953.00;;;12.07;100.00
47260;BME280;32999;52.412;4.890;2022-11-03T04:00:59;100954.06;;;11.91;100.00
47260;BME280;32999;52.412;4.890;2022-11-03T04:11:15;100935.59;;;12.24;100.00
47260;BME280;32999;52.412;4.890;2022-11-03T04:16:36;100893.88;;;12.15;100.00
47260;BME280;32999;52.412;4.890;2022-11-03T04:21:55;100947.47;;;12.43;100.00
47260;BME280;32999;52.412;4.890;2022-11-03T04:27:29;100910.25;;;12.27;100.00
47260;BME280;32999;52.412;4.890;2022-11-03T04:32:32;100917.22;;;12.21;100.00
47260;BME280;32999;52.412;4.890;2022-11-03T04:37:34;100928.22;;;12.61;100.00
47260;BME280;32999;52.412;4.890;2022-11-03T04:42:36;100922.03;;;12.67;100.00
47260;BME280;32999;52.412;4.890;2022-11-03T04:47:39;100907.94;;;12.52;100.00
47260;BME280;32999;52.412;4.890;2022-11-03T04:52:41;100840.09;;;12.17;100.00
47260;BME280;32999;52.412;4.890;2022-11-03T04:57:46;100914.78;;;12.54;100.00
47260;BME280;32999;52.412;4.890;2022-11-03T05:02:50;100911.69;;;12.57;100.00
47260;BME280;32999;52.412;4.890;2022-11-03T05:07:56;100819.47;;;12.11;100.00
47260;BME280;32999;52.412;4.890;2022-11-03T05:12:59;100830.66;;;12.21;100.00
47260;BME280;32999;52.412;4.890;2022-11-03T05:18:10;100898.84;;;12.46;100.00
47260;BME280;32999;52.412;4.890;2022-11-03T05:23:14;100880.72;;;12.48;100.00
47260;BME280;32999;52.412;4.890;2022-11-03T05:28:32;100830.94;;;12.33;100.00
47260;BME280;32999;52.412;4.890;2022-11-03T05:33:39;100750.19;;;12.01;100.00
47260;BME280;32999;52.412;4.890;2022-11-03T05:38:42;100824.56;;;12.34;100.00
47260;BME280;32999;52.412;4.890;2022-11-03T05:43:44;100817.00;;;12.50;100.00
47260;BME280;32999;52.412;4.890;2022-11-03T05:49:04;100833.03;;;12.37;100.00
47260;BME280;32999;52.412;4.890;2022-11-03T05:54:12;100746.63;;;12.42;100.00
47260;BME280;32999;52.412;4.890;2022-11-03T05:59:23;100859.06;;;12.98;100.00
47260;BME280;32999;52.412;4.890;2022-11-03T06:04:31;100822.84;;;12.67;100.00
47260;BME280;32999;52.412;4.890;2022-11-03T06:09:40;100693.88;;;11.60;100.00
47260;BME280;32999;52.412;4.890;2022-11-03T06:14:43;100813.69;;;12.48;100.00
47260;BME280;32999;52.412;4.890;2022-11-03T06:19:53;100760.09;;;12.07;100.00
47260;BME280;32999;52.412;4.890;2022-11-03T06:24:58;100756.22;;;12.16;100.00
47260;BME280;32999;52.412;4.890;2022-11-03T06:30:02;100801.75;;;12.51;100.00
47260;BME280;32999;52.412;4.890;2022-11-03T06:35:15;100809.75;;;12.44;100.00
47260;BME280;32999;52.412;4.890;2022-11-03T06:40:38;100678.25;;;11.64;100.00
47260;BME280;32999;52.412;4.890;2022-11-03T06:51:41;100792.88;;;12.50;100.00
47260;BME280;32999;52.412;4.890;2022-11-03T06:56:57;100789.00;;;12.66;100.00
47260;BME280;32999;52.412;4.890;2022-11-03T07:02:00;100770.69;;;12.76;100.00
47260;BME280;32999;52.412;4.890;2022-11-03T07:07:03;100697.13;;;12.38;100.00
47260;BME280;32999;52.412;4.890;2022-11-03T07:12:13;100774.44;;;12.95;100.00
47260;BME280;32999;52.412;4.890;2022-11-03T07:17:19;100781.69;;;13.08;100.00
47260;BME280;32999;52.412;4.890;2022-11-03T07:22:40;100763.31;;;13.05;100.00
47260;BME280;32999;52.412;4.890;2022-11-03T07:27:56;100764.13;;;12.99;100.00
47260;BME280;32999;52.412;4.890;2022-11-03T07:33:21;100758.75;;;12.99;100.00
47260;BME280;32999;52.412;4.890;2022-11-03T07:38:33;100756.91;;;12.86;100.00
47260;BME280;32999;52.412;4.890;2022-11-03T07:43:59;100748.44;;;12.82;100.00
47260;BME280;32999;52.412;4.890;2022-11-03T07:49:20;100712.09;;;12.80;100.00
47260;BME280;32999;52.412;4.890;2022-11-03T07:54:33;100717.91;;;12.83;100.00
47260;BME280;32999;52.412;4.890;2022-11-03T07:59:44;100752.16;;;12.94;100.00
47260;BME280;32999;52.412;4.890;2022-11-03T08:04:59;100711.91;;;12.94;100.00
47260;BME280;32999;52.412;4.890;2022-11-03T08:10:04;100677.66;;;12.97;100.00
47260;BME280;32999;52.412;4.890;2022-11-03T08:15:09;100678.31;;;13.25;100.00
47260;BME280;32999;52.412;4.890;2022-11-03T08:20:12;100635.97;;;13.01;100.00
47260;BME280;32999;52.412;4.890;2022-11-03T08:25:20;100697.28;;;13.37;100.00
47260;BME280;32999;52.412;4.890;2022-11-03T08:30:23;100694.13;;;13.66;100.00
47260;BME280;32999;52.412;4.890;2022-11-03T08:35:25;100629.34;;;13.49;100.00
47260;BME280;32999;52.412;4.890;2022-11-03T08:40:43;100669.41;;;13.57;100.00
47260;BME280;32999;52.412;4.890;2022-11-03T08:45:50;100602.69;;;13.48;100.00
47260;BME280;32999;52.412;4.890;2022-11-03T08:50:53;100638.16;;;13.63;100.00
47260;BME280;32999;52.412;4.890;2022-11-03T08:55:57;100600.78;;;13.61;100.00
47260;BME280;32999;52.412;4.890;2022-11-03T09:01:11;100607.53;;;13.84;100.00
47260;BME280;32999;52.412;4.890;2022-11-03T09:06:13;100601.34;;;13.83;100.00
47260;BME280;32999;52.412;4.890;2022-11-03T09:11:33;100573.50;;;13.65;100.00
47260;BME280;32999;52.412;4.890;2022-11-03T09:16:45;100578.19;;;13.82;100.00
47260;BME280;32999;52.412;4.890;2022-11-03T09:21:50;100580.28;;;14.12;100.00
47260;BME280;32999;52.412;4.890;2022-11-03T09:27:01;100571.09;;;14.33;100.00
47260;BME280;32999;52.412;4.890;2022-11-03T09:32:04;100564.84;;;14.07;100.00
47260;BME280;32999;52.412;4.890;2022-11-03T09:37:07;100426.28;;;13.86;100.00
47260;BME280;32999;52.412;4.890;2022-11-03T09:42:11;100541.22;;;14.72;100.00
47260;BME280;32999;52.412;4.890;2022-11-03T09:47:21;100525.50;;;14.69;100.00
47260;BME280;32999;52.412;4.890;2022-11-03T09:52:34;100499.88;;;14.67;100.00
47260;BME280;32999;52.412;4.890;2022-11-03T09:57:38;100484.53;;;14.49;100.00
47260;BME280;32999;52.412;4.890;2022-11-03T10:02:40;100514.09;;;15.10;100.00
47260;BME280;32999;52.412;4.890;2022-11-03T10:13:20;100494.06;;;15.43;100.00
47260;BME280;32999;52.412;4.890;2022-11-03T10:18:25;100507.31;;;15.44;100.00
47260;BME280;32999;52.412;4.890;2022-11-03T10:23:33;100489.25;;;15.63;100.00
47260;BME280;32999;52.412;4.890;2022-11-03T10:28:56;100480.59;;;15.61;100.00
47260;BME280;32999;52.412;4.890;2022-11-03T10:34:24;100463.38;;;15.44;100.00
47260;BME280;32999;52.412;4.890;2022-11-03T10:39:29;100456.78;;;15.28;100.00
47260;BME280;32999;52.412;4.890;2022-11-03T10:44:35;100449.31;;;15.42;100.00
47260;BME280;32999;52.412;4.890;2022-11-03T10:49:39;100307.84;;;14.31;100.00
47260;BME280;32999;52.412;4.890;2022-11-03T10:54:44;100399.19;;;15.11;100.00
47260;BME280;32999;52.412;4.890;2022-11-03T10:59:53;100399.66;;;15.38;100.00
47260;BME280;32999;52.412;4.890;2022-11-03T11:04:57;100390.13;;;15.53;100.00
47260;BME280;32999;52.412;4.890;2022-11-03T11:10:10;100334.16;;;15.14;100.00
47260;BME280;32999;52.412;4.890;2022-11-03T11:15:35;100382.09;;;15.65;100.00
47260;BME280;32999;52.412;4.890;2022-11-03T11:20:38;100359.97;;;15.63;100.00
47260;BME280;32999;52.412;4.890;2022-11-03T11:26:04;100365.38;;;15.86;100.00
47260;BME280;32999;52.412;4.890;2022-11-03T11:31:30;100377.00;;;15.98;100.00
47260;BME280;32999;52.412;4.890;2022-11-03T11:36:32;100339.03;;;15.88;100.00
47260;BME280;32999;52.412;4.890;2022-11-03T11:42:05;100361.31;;;16.30;100.00
47260;BME280;32999;52.412;4.890;2022-11-03T11:47:27;100351.31;;;16.43;100.00
47260;BME280;32999;52.412;4.890;2022-11-03T11:52:29;100335.72;;;16.45;100.00
47260;BME280;32999;52.412;4.890;2022-11-03T11:57:33;100313.69;;;16.48;100.00
47260;BME280;32999;52.412;4.890;2022-11-03T12:02:45;100240.59;;;15.62;100.00
47260;BME280;32999;52.412;4.890;2022-11-03T12:07:47;100278.69;;;16.01;100.00
47260;BME280;32999;52.412;4.890;2022-11-03T12:12:49;100158.16;;;15.38;100.00
47260;BME280;32999;52.412;4.890;2022-11-03T12:17:52;100225.28;;;15.75;100.00
47260;BME280;32999;52.412;4.890;2022-11-03T12:22:53;100273.19;;;15.73;100.00
47260;BME280;32999;52.412;4.890;2022-11-03T12:27:55;100254.31;;;16.08;100.00
47260;BME280;32999;52.412;4.890;2022-11-03T12:32:58;100235.53;;;16.13;100.00
47260;BME280;32999;52.412;4.890;2022-11-03T12:38:00;100150.19;;;15.43;100.00
47260;BME280;32999;52.412;4.890;2022-11-03T12:43:02;100228.78;;;15.98;100.00
47260;BME280;32999;52.412;4.890;2022-11-03T12:48:05;100180.66;;;15.79;100.00
47260;BME280;32999;52.412;4.890;2022-11-03T12:53:07;100213.38;;;16.22;100.00
47260;BME280;32999;52.412;4.890;2022-11-03T12:58:09;100106.97;;;15.50;100.00
47260;BME280;32999;52.412;4.890;2022-11-03T13:03:12;100100.06;;;15.42;100.00
47260;BME280;32999;52.412;4.890;2022-11-03T13:08:14;100190.16;;;15.58;100.00
47260;BME280;32999;52.412;4.890;2022-11-03T13:13:16;100168.59;;;15.81;100.00
47260;BME280;32999;52.412;4.890;2022-11-03T13:18:19;100142.66;;;15.92;100.00
47260;BME280;32999;52.412;4.890;2022-11-03T13:23:21;100092.03;;;15.94;100.00
47260;BME280;32999;52.412;4.890;2022-11-03T13:28:23;100148.66;;;16.79;100.00
47260;BME280;32999;52.412;4.890;2022-11-03T13:33:26;100023.56;;;16.40;100.00
47260;BME280;32999;52.412;4.890;2022-11-03T13:38:28;100022.53;;;16.58;100.00
47260;BME280;32999;52.412;4.890;2022-11-03T13:43:29;99970.13;;;16.04;100.00
47260;BME280;32999;52.412;4.890;2022-11-03T13:48:32;100074.88;;;16.90;100.00
47260;BME280;32999;52.412;4.890;2022-11-03T13:53:34;99981.81;;;16.26;100.00
47260;BME280;32999;52.412;4.890;2022-11-03T13:58:36;100019.16;;;16.17;100.00
47260;BME280;32999;52.412;4.890;2022-11-03T14:03:39;100108.22;;;16.67;100.00
47260;BME280;32999;52.412;4.890;2022-11-03T14:08:41;100078.69;;;16.61;100.00
47260;BME280;32999;52.412;4.890;2022-11-03T14:13:42;99977.44;;;15.91;100.00
47260;BME280;32999;52.412;4.890;2022-11-03T14:18:45;100013.38;;;16.25;100.00
47260;BME280;32999;52.412;4.890;2022-11-03T14:23:47;100042.00;;;16.93;100.00
47260;BME280;32999;52.412;4.890;2022-11-03T14:28:49;100036.78;;;16.70;100.00
47260;BME280;32999;52.412;4.890;2022-11-03T14:33:54;100040.84;;;16.56;100.00
47260;BME280;32999;52.412;4.890;2022-11-03T14:38:56;99987.81;;;15.83;100.00
47260;BME280;32999;52.412;4.890;2022-11-03T14:43:58;99990.16;;;16.24;100.00
47260;BME280;32999;52.412;4.890;2022-11-03T14:49:03;100012.41;;;16.65;100.00
47260;BME280;32999;52.412;4.890;2022-11-03T14:54:05;100007.59;;;16.67;100.00
47260;BME280;32999;52.412;4.890;2022-11-03T14:59:06;99938.28;;;16.01;100.00
47260;BME280;32999;52.412;4.890;2022-11-03T15:04:10;99993.53;;;16.31;100.00
47260;BME280;32999;52.412;4.890;2022-11-03T15:09:12;99986.88;;;16.22;100.00
47260;BME280;32999;52.412;4.890;2022-11-03T15:14:16;99986.19;;;15.82;100.00
47260;BME280;32999;52.412;4.890;2022-11-03T15:19:20;99959.84;;;15.72;100.00
47260;BME280;32999;52.412;4.890;2022-11-03T15:24:31;99958.91;;;15.78;100.00
47260;BME280;32999;52.412;4.890;2022-11-03T15:29:33;99938.94;;;15.62;100.00
47260;BME280;32999;52.412;4.890;2022-11-03T15:34:43;99922.34;;;15.82;100.00
47260;BME280;32999;52.412;4.890;2022-11-03T15:39:57;99853.66;;;15.40;100.00
47260;BME280;32999;52.412;4.890;2022-11-03T15:44:59;99903.91;;;15.62;100.00
47260;BME280;32999;52.412;4.890;2022-11-03T15:50:04;99892.97;;;15.41;100.00
47260;BME280;32999;52.412;4.890;2022-11-03T15:55:08;99912.53;;;15.76;100.00
47260;BME280;32999;52.412;4.890;2022-11-03T16:00:11;99905.06;;;15.67;100.00
47260;BME280;32999;52.412;4.890;2022-11-03T16:05:14;99893.47;;;15.38;100.00
47260;BME280;32999;52.412;4.890;2022-11-03T16:10:17;99865.91;;;15.19;100.00
47260;BME280;32999;52.412;4.890;2022-11-03T16:15:19;99901.84;;;15.13;100.00
47260;BME280;32999;52.412;4.890;2022-11-03T16:20:31;99885.00;;;15.17;100.00
47260;BME280;32999;52.412;4.890;2022-11-03T16:25:34;99834.53;;;14.56;100.00
47260;BME280;32999;52.412;4.890;2022-11-03T16:30:37;99749.03;;;13.94;100.00
47260;BME280;32999;52.412;4.890;2022-11-03T16:35:48;99874.19;;;14.89;100.00
47260;BME280;32999;52.412;4.890;2022-11-03T16:40:50;99873.47;;;14.53;100.00
47260;BME280;32999;52.412;4.890;2022-11-03T16:45:52;99883.16;;;14.31;100.00
47260;BME280;32999;52.412;4.890;2022-11-03T16:50:55;99878.97;;;14.35;100.00
47260;BME280;32999;52.412;4.890;2022-11-03T16:55:59;99871.22;;;14.27;100.00
47260;BME280;32999;52.412;4.890;2022-11-03T17:01:01;99868.53;;;14.04;100.00
47260;BME280;32999;52.412;4.890;2022-11-03T17:06:05;99872.75;;;14.00;100.00
47260;BME280;32999;52.412;4.890;2022-11-03T17:11:07;99871.56;;;13.84;100.00
47260;BME280;32999;52.412;4.890;2022-11-03T17:16:09;99836.66;;;13.42;100.00
47260;BME280;32999;52.412;4.890;2022-11-03T17:21:12;99852.16;;;13.28;100.00
47260;BME280;32999;52.412;4.890;2022-11-03T17:26:13;99799.69;;;12.84;100.00
47260;BME280;32999;52.412;4.890;2022-11-03T17:31:16;99808.03;;;12.76;100.00
47260;BME280;32999;52.412;4.890;2022-11-03T17:36:19;99837.84;;;12.86;100.00
47260;BME280;32999;52.412;4.890;2022-11-03T17:41:21;99826.50;;;12.66;100.00
47260;BME280;32999;52.412;4.890;2022-11-03T17:46:24;99864.19;;;12.89;100.00
47260;BME280;32999;52.412;4.890;2022-11-03T17:51:27;99801.88;;;12.21;100.00
47260;BME280;32999;52.412;4.890;2022-11-03T17:56:29;99783.66;;;12.30;100.00
47260;BME280;32999;52.412;4.890;2022-11-03T18:01:31;99850.34;;;12.74;100.00
47260;BME280;32999;52.412;4.890;2022-11-03T18:06:36;99797.50;;;12.45;100.00
47260;BME280;32999;52.412;4.890;2022-11-03T18:11:39;99832.47;;;12.86;100.00
47260;BME280;32999;52.412;4.890;2022-11-03T18:16:59;99840.38;;;12.81;100.00
47260;BME280;32999;52.412;4.890;2022-11-03T18:22:03;99759.31;;;12.13;100.00
47260;BME280;32999;52.412;4.890;2022-11-03T18:27:09;99773.81;;;12.42;100.00
47260;BME280;32999;52.412;4.890;2022-11-03T18:32:15;99855.88;;;12.61;100.00
47260;BME280;32999;52.412;4.890;2022-11-03T18:37:19;99855.56;;;12.51;100.00
47260;BME280;32999;52.412;4.890;2022-11-03T18:42:21;99814.78;;;12.49;100.00
47260;BME280;32999;52.412;4.890;2022-11-03T18:47:23;99815.38;;;12.51;100.00
47260;BME280;32999;52.412;4.890;2022-11-03T18:52:39;99764.66;;;11.95;100.00
47260;BME280;32999;52.412;4.890;2022-11-03T18:57:53;99728.59;;;11.79;100.00
47260;BME280;32999;52.412;4.890;2022-11-03T19:03:03;99784.94;;;12.27;100.00
47260;BME280;32999;52.412;4.890;2022-11-03T19:08:10;99794.00;;;12.26;100.00
47260;BME280;32999;52.412;4.890;2022-11-03T19:13:21;99790.59;;;12.37;100.00
47260;BME280;32999;52.412;4.890;2022-11-03T19:18:26;99792.69;;;12.35;100.00
47260;BME280;32999;52.412;4.890;2022-11-03T19:23:30;99783.22;;;12.33;100.00
47260;BME280;32999;52.412;4.890;2022-11-03T19:28:32;99728.59;;;12.15;100.00
47260;BME280;32999;52.412;4.890;2022-11-03T19:33:34;99790.81;;;12.54;100.00
47260;BME280;32999;52.412;4.890;2022-11-03T19:38:40;99768.03;;;12.26;100.00
47260;BME280;32999;52.412;4.890;2022-11-03T19:43:42;99781.03;;;12.41;100.00
47260;BME280;32999;52.412;4.890;2022-11-03T19:48:44;99755.22;;;12.47;100.00
47260;BME280;32999;52.412;4.890;2022-11-03T19:53:47;99747.03;;;12.42;100.00
47260;BME280;32999;52.412;4.890;2022-11-03T19:58:49;99745.09;;;12.49;100.00
47260;BME280;32999;52.412;4.890;2022-11-03T20:03:51;99690.78;;;12.23;100.00
47260;BME280;32999;52.412;4.890;2022-11-03T20:08:54;99675.69;;;12.29;100.00
47260;BME280;32999;52.412;4.890;2022-11-03T20:13:56;99718.69;;;12.64;100.00
47260;BME280;32999;52.412;4.890;2022-11-03T20:18:58;99695.50;;;12.40;100.00
47260;BME280;32999;52.412;4.890;2022-11-03T20:24:03;99734.47;;;12.72;100.00
47260;BME280;32999;52.412;4.890;2022-11-03T20:29:09;99638.25;;;12.22;100.00
47260;BME280;32999;52.412;4.890;2022-11-03T20:34:14;99584.44;;;11.76;100.00
47260;BME280;32999;52.412;4.890;2022-11-03T20:39:17;99745.06;;;12.67;100.00
47260;BME280;32999;52.412;4.890;2022-11-03T20:44:19;99760.94;;;12.50;100.00
47260;BME280;32999;52.412;4.890;2022-11-03T20:49:21;99748.91;;;12.71;100.00
47260;BME280;32999;52.412;4.890;2022-11-03T20:54:25;99648.63;;;12.01;100.00
47260;BME280;32999;52.412;4.890;2022-11-03T20:59:26;99742.00;;;12.64;100.00
47260;BME280;32999;52.412;4.890;2022-11-03T21:04:29;99744.38;;;12.72;100.00
47260;BME280;32999;52.412;4.890;2022-11-03T21:09:33;99657.25;;;12.03;100.00
47260;BME280;32999;52.412;4.890;2022-11-03T21:14:34;99744.03;;;12.50;100.00
47260;BME280;32999;52.412;4.890;2022-11-03T21:19:37;99765.13;;;12.46;100.00
47260;BME280;32999;52.412;4.890;2022-11-03T21:24:57;99798.25;;;12.52;100.00
47260;BME280;32999;52.412;4.890;2022-11-03T21:29:58;99807.53;;;12.49;100.00
47260;BME280;32999;52.412;4.890;2022-11-03T21:35:00;99719.88;;;12.20;100.00
47260;BME280;32999;52.412;4.890;2022-11-03T21:40:04;99722.03;;;12.30;100.00
47260;BME280;32999;52.412;4.890;2022-11-03T21:45:06;99822.06;;;12.60;100.00
47260;BME280;32999;52.412;4.890;2022-11-03T21:50:08;99785.59;;;12.04;100.00
47260;BME280;32999;52.412;4.890;2022-11-03T21:55:14;99726.91;;;11.35;100.00
47260;BME280;32999;52.412;4.890;2022-11-03T22:00:19;99905.38;;;12.15;100.00
47260;BME280;32999;52.412;4.890;2022-11-03T22:05:25;99862.75;;;11.89;100.00
47260;BME280;32999;52.412;4.890;2022-11-03T22:10:38;99740.28;;;11.35;100.00
47260;BME280;32999;52.412;4.890;2022-11-03T22:15:41;99792.81;;;11.79;100.00
47260;BME280;32999;52.412;4.890;2022-11-03T22:21:00;99852.81;;;11.96;100.00
47260;BME280;32999;52.412;4.890;2022-11-03T22:26:20;99894.16;;;12.25;100.00
47260;BME280;32999;52.412;4.890;2022-11-03T22:31:39;99879.84;;;12.13;100.00
47260;BME280;32999;52.412;4.890;2022-11-03T22:36:41;99919.31;;;12.24;100.00
47260;BME280;32999;52.412;4.890;2022-11-03T22:41:45;99898.25;;;12.27;100.00
47260;BME280;32999;52.412;4.890;2022-11-03T22:47:04;99920.75;;;12.45;100.00
47260;BME280;32999;52.412;4.890;2022-11-03T22:52:06;99951.84;;;12.71;100.00
47260;BME280;32999;52.412;4.890;2022-11-03T22:57:10;99941.50;;;12.74;100.00
47260;BME280;32999;52.412;4.890;2022-11-03T23:02:12;99925.09;;;12.64;100.00
47260;BME280;32999;52.412;4.890;2022-11-03T23:07:14;99955.88;;;12.80;100.00
47260;BME280;32999;52.412;4.890;2022-11-03T23:12:17;99965.97;;;12.84;100.00
47260;BME280;32999;52.412;4.890;2022-11-03T23:17:22;99978.91;;;12.87;100.00
47260;BME280;32999;52.412;4.890;2022-11-03T23:22:43;99971.44;;;12.89;100.00
47260;BME280;32999;52.412;4.890;2022-11-03T23:27:47;99993.97;;;13.07;100.00
47260;BME280;32999;52.412;4.890;2022-11-03T23:32:49;99922.56;;;12.51;100.00
47260;BME280;32999;52.412;4.890;2022-11-03T23:37:51;99993.38;;;12.86;100.00
47260;BME280;32999;52.412;4.890;2022-11-03T23:42:54;99929.75;;;12.07;100.00
47260;BME280;32999;52.412;4.890;2022-11-03T23:47:56;100008.19;;;12.64;100.00
47260;BME280;32999;52.412;4.890;2022-11-03T23:53:14;100001.75;;;12.72;100.00
47260;BME280;32999;52.412;4.890;2022-11-03T23:58:19;99977.25;;;12.68;100.00
